Time;durP1;ratioP1;P1;durP2;ratioP2;P2;SDS_P1;SDS_P2;PMS_P1;PMS_P2;Temp;Humidity;BMP_temperature;BMP_pressure;BME280_temperature;BME280_humidity;BME280_pressure;Samples;Min_cycle;Max_cycle;Signal;HPM_P1;HPM_P2
2022/12/21 00:02:16;;;;;;;236.30;52.70;;;8.80;99.90;;;;;;4891148;29;20503;-77
2022/12/21 00:04:43;;;;;;;282.88;57.45;;;8.80;99.90;;;;;;4892179;29;20044;-77
2022/12/21 00:07:11;;;;;;;199.15;51.58;;;8.80;99.90;;;;;;4880845;29;20132;-77
2022/12/21 00:09:37;;;;;;;169.23;49.13;;;8.70;99.90;;;;;;4896971;29;20045;-77
2022/12/21 00:12:03;;;;;;;306.83;58.83;;;8.70;99.90;;;;;;4886414;29;20127;-77
2022/12/21 00:14:29;;;;;;;269.60;53.38;;;8.70;99.90;;;;;;4882439;29;20048;-77
2022/12/21 00:16:57;;;;;;;483.58;68.78;;;8.70;99.90;;;;;;4888211;29;20108;-77
2022/12/21 00:19:23;;;;;;;196.02;45.28;;;8.70;99.90;;;;;;4869140;29;20150;-77
2022/12/21 00:21:48;;;;;;;477.58;65.55;;;8.70;99.90;;;;;;4907303;29;20049;-77
2022/12/21 00:24:14;;;;;;;335.42;55.20;;;8.60;99.90;;;;;;4891227;29;20514;-77
2022/12/21 00:26:40;;;;;;;395.92;56.78;;;8.60;99.90;;;;;;4888802;29;20044;-77
2022/12/21 00:29:06;;;;;;;316.00;51.20;;;8.50;99.90;;;;;;4914535;29;20491;-77
2022/12/21 00:31:39;;;;;;;600.35;70.05;;;8.50;99.90;;;;;;4898178;29;20107;-77
2022/12/21 00:34:12;;;;;;;383.05;58.28;;;8.50;99.90;;;;;;4892812;29;20061;-77
2022/12/21 00:36:38;;;;;;;543.50;66.18;;;8.50;99.90;;;;;;4887037;29;20492;-77
2022/12/21 00:39:04;;;;;;;436.55;60.00;;;8.40;99.90;;;;;;4886052;29;20049;-77
2022/12/21 00:41:30;;;;;;;536.28;66.25;;;8.40;99.90;;;;;;4881171;29;20056;-77
2022/12/21 00:43:56;;;;;;;373.58;56.33;;;8.40;99.90;;;;;;4885127;29;20048;-77
2022/12/21 00:46:29;;;;;;;499.92;67.55;;;8.30;99.90;;;;;;4903339;29;20275;-77
2022/12/21 00:48:56;;;;;;;479.60;66.88;;;8.30;99.90;;;;;;4867360;29;20488;-77
2022/12/21 00:51:23;;;;;;;465.20;63.47;;;8.30;99.90;;;;;;4904472;29;20400;-77
2022/12/21 00:53:49;;;;;;;294.13;51.15;;;8.30;99.90;;;;;;4888608;29;20049;-77
2022/12/21 00:56:17;;;;;;;503.67;64.55;;;8.30;99.90;;;;;;4864967;29;20495;-77
2022/12/21 00:58:43;;;;;;;319.88;50.20;;;8.30;99.90;;;;;;4879452;29;20492;-77
2022/12/21 01:01:15;;;;;;;469.17;60.33;;;8.20;99.90;;;;;;4899328;29;20059;-77
2022/12/21 01:03:41;;;;;;;426.48;57.92;;;8.20;99.90;;;;;;4895199;29;20458;-77
2022/12/21 01:06:13;;;;;;;100.32;35.33;;;8.20;99.90;;;;;;4903421;29;20051;-77
2022/12/21 01:08:39;;;;;;;406.48;55.83;;;8.20;99.90;;;;;;4886481;29;20048;-77
2022/12/21 01:11:05;;;;;;;460.70;57.97;;;8.20;99.90;;;;;;4891181;29;20372;-77
2022/12/21 01:13:32;;;;;;;463.45;58.65;;;8.20;99.90;;;;;;4890355;29;20057;-77
2022/12/21 01:15:58;;;;;;;277.42;45.83;;;8.10;99.90;;;;;;4877547;29;20454;-77
2022/12/21 01:18:24;;;;;;;519.05;64.85;;;8.10;99.90;;;;;;4902357;29;20394;-77
2022/12/21 01:20:54;;;;;;;463.30;58.20;;;8.10;99.90;;;;;;4877074;29;20108;-77
2022/12/21 01:23:20;;;;;;;316.77;49.38;;;8.20;99.90;;;;;;4888934;29;20043;-78
2022/12/21 01:25:47;;;;;;;283.92;43.80;;;8.10;99.90;;;;;;4907041;29;20060;-77
2022/12/21 01:28:17;;;;;;;330.17;47.05;;;8.10;99.90;;;;;;4893100;29;20044;-77
2022/12/21 01:30:43;;;;;;;272.52;44.17;;;8.10;99.90;;;;;;4895679;29;20052;-77
2022/12/21 01:33:15;;;;;;;309.38;44.88;;;8.00;99.90;;;;;;4911096;29;20064;-77
2022/12/21 01:35:42;;;;;;;371.50;50.97;;;8.10;99.90;;;;;;4914186;29;20463;-76
2022/12/21 01:38:09;;;;;;;118.18;34.53;;;8.00;99.90;;;;;;4885599;29;20048;-76
2022/12/21 01:40:38;;;;;;;395.20;49.83;;;8.00;99.90;;;;;;4923030;29;20392;-77
2022/12/21 01:43:59;;;;;;;192.07;39.07;;;8.00;99.90;;;;;;4908375;29;20047;-76
2022/12/21 01:46:36;;;;;;;373.15;46.70;;;7.90;99.90;;;;;;4891413;29;20836;-76
2022/12/21 01:49:24;;;;;;;277.85;37.95;;;7.90;99.90;;;;;;4921147;29;20055;-76
2022/12/21 01:52:02;;;;;;;90.55;29.85;;;7.90;99.90;;;;;;4897264;29;20119;-76
2022/12/21 01:54:33;;;;;;;380.77;41.03;;;7.90;99.90;;;;;;4921607;29;20055;-77
2022/12/21 01:57:02;;;;;;;423.13;43.25;;;7.90;99.90;;;;;;4900935;29;20522;-77
2022/12/21 01:59:30;;;;;;;83.07;25.88;;;7.80;99.90;;;;;;4922514;29;20082;-77
2022/12/21 02:02:01;;;;;;;280.35;35.22;;;7.80;99.90;;;;;;4894006;29;20458;-77
2022/12/21 02:04:26;;;;;;;137.05;27.50;;;7.80;99.90;;;;;;4911530;29;20351;-77
2022/12/21 02:06:56;;;;;;;196.95;26.65;;;7.80;99.90;;;;;;4908687;29;20129;-76
2022/12/21 02:09:24;;;;;;;273.38;31.83;;;7.70;99.90;;;;;;4922718;29;20103;-77
2022/12/21 02:11:51;;;;;;;110.10;23.27;;;7.70;99.90;;;;;;4884389;29;20055;-77
2022/12/21 02:14:17;;;;;;;343.60;36.03;;;7.70;99.90;;;;;;4925652;29;20056;-76
2022/12/21 02:17:20;;;;;;;259.65;30.92;;;7.60;99.90;;;;;;4901805;29;20083;-76
2022/12/21 02:20:08;;;;;;;302.25;34.63;;;7.60;99.90;;;;;;4913946;29;20058;-76
2022/12/21 02:23:02;;;;;;;209.55;32.08;;;7.60;99.90;;;;;;4925097;29;20111;-75
2022/12/21 02:25:49;;;;;;;83.60;25.90;;;7.60;99.90;;;;;;4907338;29;20044;-76
2022/12/21 02:28:27;;;;;;;282.83;36.88;;;7.60;99.90;;;;;;4915199;29;20052;-77
2022/12/21 02:31:11;;;;;;;97.18;26.90;;;7.60;99.90;;;;;;4918281;29;20360;-77
2022/12/21 02:33:50;;;;;;;157.30;28.15;;;7.60;99.90;;;;;;4908711;28;20044;-76
2022/12/21 02:36:29;;;;;;;173.85;31.17;;;7.50;99.90;;;;;;4909337;29;20047;-77
2022/12/21 02:39:26;;;;;;;126.50;26.50;;;7.50;99.90;;;;;;4913058;29;20039;-77
2022/12/21 02:44:12;;;;;;;344.75;40.83;;;7.50;99.90;;;;;;4929902;29;20052;-77
2022/12/21 02:45:46;;;;;;;91.45;25.17;;;7.50;99.90;;;;;;4922308;29;20051;-77
2022/12/21 02:48:28;;;;;;;524.33;48.22;;;7.40;99.90;;;;;;4847865;29;20549;-77
2022/12/21 02:51:02;;;;;;;103.72;27.45;;;7.40;99.90;;;;;;4911132;29;20123;-77
2022/12/21 02:53:38;;;;;;;265.10;36.80;;;7.50;99.90;;;;;;4925385;29;20056;-78
2022/12/21 02:56:04;;;;;;;104.45;27.48;;;7.50;99.90;;;;;;4919976;29;20224;-77
2022/12/21 02:58:30;;;;;;;108.93;28.23;;;7.40;99.90;;;;;;4915355;29;20040;-77
2022/12/21 03:01:25;;;;;;;215.95;32.35;;;7.50;99.90;;;;;;4931574;29;20576;-76
2022/12/21 03:04:00;;;;;;;168.30;29.42;;;7.50;99.90;;;;;;4892208;29;20496;-76
2022/12/21 03:06:48;;;;;;;223.57;30.05;;;7.50;99.90;;;;;;4918867;29;20082;-76
2022/12/21 03:09:23;;;;;;;94.00;24.13;;;7.50;99.90;;;;;;4923069;29;20130;-76
2022/12/21 03:11:55;;;;;;;351.95;33.05;;;7.50;99.90;;;;;;4909050;29;20047;-76
2022/12/21 03:14:51;;;;;;;165.45;28.08;;;7.50;99.90;;;;;;4915301;29;20099;-76
2022/12/21 03:17:54;;;;;;;124.93;25.52;;;7.50;99.90;;;;;;4907858;29;20393;-76
2022/12/21 03:20:45;;;;;;;285.50;31.25;;;7.50;99.90;;;;;;4928870;28;20048;-77
2022/12/21 03:23:23;;;;;;;380.42;36.78;;;7.50;99.90;;;;;;4920602;29;20111;-77
2022/12/21 03:25:58;;;;;;;333.27;34.03;;;7.50;99.90;;;;;;4919079;29;20043;-76
2022/12/21 03:28:29;;;;;;;241.10;29.73;;;7.50;99.90;;;;;;4916443;29;20048;-77
2022/12/21 03:30:57;;;;;;;;;;;7.50;99.90;;;;;;4910309;29;20107;-77
2022/12/21 03:33:31;;;;;;;472.83;40.28;;;7.40;99.90;;;;;;4929234;29;19939;-77
2022/12/21 03:36:09;;;;;;;103.70;25.92;;;7.40;99.90;;;;;;4919677;29;20519;-77
2022/12/21 03:38:53;;;;;;;141.35;25.98;;;7.40;99.90;;;;;;4917983;29;20234;-77
2022/12/21 03:41:51;;;;;;;364.40;36.60;;;7.40;99.90;;;;;;4926742;29;20052;-77
2022/12/21 03:44:22;;;;;;;;;;;7.40;99.90;;;;;;4917181;29;20059;-77
2022/12/21 03:47:14;;;;;;;439.45;42.83;;;7.40;99.90;;;;;;4920112;29;19927;-77
2022/12/21 03:49:41;;;;;;;268.30;33.45;;;7.40;99.90;;;;;;4899727;29;20132;-77
2022/12/21 03:52:17;;;;;;;156.18;31.80;;;7.40;99.90;;;;;;4902042;29;20048;-76
2022/12/21 03:55:02;;;;;;;260.35;33.30;;;7.40;99.90;;;;;;4930735;29;20055;-77
2022/12/21 03:57:29;;;;;;;198.48;33.13;;;7.40;99.90;;;;;;4905809;29;20127;-76
2022/12/21 03:59:58;;;;;;;152.23;33.45;;;7.40;99.90;;;;;;4907897;29;20070;-76
2022/12/21 04:02:37;;;;;;;418.65;46.33;;;7.30;99.90;;;;;;4922502;29;20149;-77
2022/12/21 04:05:15;;;;;;;287.60;40.22;;;7.40;99.90;;;;;;4925654;29;20051;-77
2022/12/21 04:07:42;;;;;;;270.90;37.97;;;7.30;99.90;;;;;;4890102;29;20114;-77
2022/12/21 04:10:12;;;;;;;279.13;38.13;;;7.30;99.90;;;;;;4910628;29;20135;-77
2022/12/21 04:12:38;;;;;;;226.30;37.53;;;7.30;99.90;;;;;;4910015;29;20082;-77
2022/12/21 04:15:15;;;;;;;261.70;38.35;;;7.30;99.90;;;;;;4906829;29;20314;-77
2022/12/21 04:17:43;;;;;;;359.58;43.72;;;7.30;99.90;;;;;;4922958;28;20840;-77
2022/12/21 04:20:14;;;;;;;372.58;43.95;;;7.30;99.90;;;;;;4920841;29;20517;-77
2022/12/21 04:28:17;;;;;;;374.50;43.13;;;7.30;99.90;;;;;;4931050;29;20054;-77
2022/12/21 04:30:44;;;;;;;326.90;40.13;;;7.30;99.90;;;;;;4913859;29;20046;-77
2022/12/21 04:33:13;;;;;;;403.55;45.38;;;7.30;99.90;;;;;;4902585;29;20455;-77
2022/12/21 04:37:30;;;;;;;177.15;32.22;;;7.20;99.90;;;;;;4916075;29;20108;-77
2022/12/21 04:38:26;;;;;;;276.50;39.83;;;7.20;99.90;;;;;;4898301;29;20056;-76
2022/12/21 04:40:53;;;;;;;126.00;34.38;;;7.20;99.90;;;;;;4905011;29;20058;-77
2022/12/21 04:43:19;;;;;;;513.85;52.95;;;7.20;99.90;;;;;;4920303;29;20407;-77
2022/12/21 04:45:45;;;;;;;388.50;47.22;;;7.20;99.90;;;;;;4910906;29;20058;-77
2022/12/21 04:48:11;;;;;;;144.57;36.28;;;7.20;99.90;;;;;;4913113;29;20513;-77
2022/12/21 04:50:40;;;;;;;176.90;39.90;;;7.20;99.90;;;;;;4914621;29;20043;-76
2022/12/21 04:53:06;;;;;;;272.63;46.33;;;7.20;99.90;;;;;;4895266;29;20426;-76
2022/12/21 04:55:32;;;;;;;199.40;41.65;;;7.20;99.90;;;;;;4910566;29;20054;-76
2022/12/21 04:57:58;;;;;;;361.90;53.30;;;7.20;99.90;;;;;;4907347;29;20123;-76
2022/12/21 05:00:24;;;;;;;303.80;52.75;;;7.20;99.90;;;;;;4926278;28;20050;-76
2022/12/21 05:02:50;;;;;;;242.88;47.42;;;7.20;99.90;;;;;;4880981;29;20052;-77
2022/12/21 05:05:16;;;;;;;567.97;74.28;;;7.20;99.90;;;;;;4910375;29;20058;-76
2022/12/21 05:07:42;;;;;;;203.00;46.92;;;7.20;99.90;;;;;;4923286;29;20048;-76
2022/12/21 05:10:09;;;;;;;273.25;51.58;;;7.20;99.90;;;;;;4900128;29;20127;-76
2022/12/21 05:12:34;;;;;;;225.57;48.60;;;7.20;99.90;;;;;;4894612;29;20039;-76
2022/12/21 05:15:00;;;;;;;237.07;48.08;;;7.20;99.90;;;;;;4898533;29;20051;-76
2022/12/21 05:17:29;;;;;;;172.82;41.83;;;7.20;99.90;;;;;;4913948;29;20122;-76
2022/12/21 05:19:55;;;;;;;226.65;43.58;;;7.20;99.90;;;;;;4910374;29;20122;-76
2022/12/21 05:22:21;;;;;;;348.83;59.28;;;7.10;99.90;;;;;;4909940;29;20052;-76
2022/12/21 05:24:47;;;;;;;329.23;52.90;;;7.10;99.90;;;;;;4913586;29;20499;-76
2022/12/21 05:27:13;;;;;;;257.30;47.38;;;7.10;99.90;;;;;;4892953;29;20051;-76
2022/12/21 05:29:39;;;;;;;238.15;47.35;;;7.10;99.90;;;;;;4923496;28;20039;-75
2022/12/21 05:32:05;;;;;;;130.20;39.65;;;7.00;99.90;;;;;;4906386;29;20194;-76
2022/12/21 05:34:31;;;;;;;141.07;39.20;;;7.10;99.90;;;;;;4882549;29;20056;-76
2022/12/21 05:37:00;;;;;;;358.30;58.95;;;7.00;99.90;;;;;;4913612;29;20043;-76
2022/12/21 05:39:25;;;;;;;108.50;38.67;;;7.00;99.90;;;;;;4906229;29;20106;-75
2022/12/21 05:41:51;;;;;;;444.73;69.78;;;7.00;99.90;;;;;;4885760;29;20344;-76
2022/12/21 05:44:17;;;;;;;239.43;47.25;;;7.00;99.90;;;;;;4895707;29;20388;-76
2022/12/21 05:46:42;;;;;;;174.98;45.28;;;7.10;99.90;;;;;;4903678;29;20353;-76
2022/12/21 05:49:08;;;;;;;117.35;41.45;;;7.00;99.90;;;;;;4895699;29;20050;-76
2022/12/21 05:51:34;;;;;;;185.00;43.50;;;7.00;99.90;;;;;;4915543;29;20050;-75
2022/12/21 05:54:00;;;;;;;165.30;45.30;;;7.00;99.90;;;;;;4903745;29;20059;-77
2022/12/21 05:56:25;;;;;;;198.75;46.17;;;7.10;99.90;;;;;;4905381;29;20040;-76
2022/12/21 05:58:51;;;;;;;270.20;53.28;;;7.10;99.90;;;;;;4918805;29;20731;-76
2022/12/21 06:01:17;;;;;;;431.90;72.00;;;7.10;99.90;;;;;;4889879;29;20098;-76
2022/12/21 06:03:43;;;;;;;149.48;46.38;;;7.10;99.90;;;;;;4931505;28;20142;-76
2022/12/21 06:06:14;;;;;;;240.13;49.88;;;7.10;99.90;;;;;;4905374;29;20056;-76
2022/12/21 06:08:44;;;;;;;377.88;65.00;;;7.10;99.90;;;;;;4903698;29;20048;-76
2022/12/21 06:11:13;;;;;;;241.32;53.58;;;7.10;99.90;;;;;;4905774;29;20515;-76
2022/12/21 06:13:39;;;;;;;233.93;50.33;;;7.10;99.90;;;;;;4896729;29;20040;-76
2022/12/21 06:16:07;;;;;;;330.05;59.88;;;7.10;99.90;;;;;;4901342;29;20580;-76
2022/12/21 06:18:34;;;;;;;366.02;62.83;;;7.10;99.90;;;;;;4926853;29;20094;-76
2022/12/21 06:21:00;;;;;;;171.57;50.35;;;7.20;99.90;;;;;;4907971;29;20059;-76
2022/12/21 06:23:26;;;;;;;314.33;56.58;;;7.20;99.90;;;;;;4913116;29;20044;-76
2022/12/21 06:26:00;;;;;;;105.57;42.85;;;7.30;99.90;;;;;;4907549;29;20051;-76
2022/12/21 06:28:27;;;;;;;166.05;47.95;;;7.30;99.90;;;;;;4902497;29;20048;-76
2022/12/21 06:30:55;;;;;;;209.68;50.90;;;7.30;99.90;;;;;;4910029;29;20498;-76
2022/12/21 06:33:22;;;;;;;260.08;58.80;;;7.20;99.90;;;;;;4918839;29;20064;-76
2022/12/21 06:35:54;;;;;;;169.73;52.33;;;7.20;99.90;;;;;;4919968;29;20103;-77
2022/12/21 06:38:20;;;;;;;279.00;55.95;;;7.30;99.90;;;;;;4908043;29;20048;-76
2022/12/21 06:41:01;;;;;;;175.52;51.70;;;7.30;99.90;;;;;;4919061;29;20044;-76
2022/12/21 06:43:29;;;;;;;254.77;58.97;;;7.30;99.90;;;;;;4905772;29;20402;-77
2022/12/21 06:46:04;;;;;;;756.90;101.68;;;7.30;99.90;;;;;;4914518;29;20043;-76
2022/12/21 06:48:31;;;;;;;649.05;100.55;;;7.30;99.90;;;;;;4916375;29;20049;-77
2022/12/21 06:50:59;;;;;;;323.25;65.15;;;7.40;99.90;;;;;;4904861;29;20101;-77
2022/12/21 06:53:29;;;;;;;229.25;56.55;;;7.40;99.90;;;;;;4922240;29;20036;-77
2022/12/21 06:56:06;;;;;;;409.30;72.10;;;7.40;99.90;;;;;;4895959;29;20415;-77
2022/12/21 06:58:35;;;;;;;579.22;90.00;;;7.40;99.90;;;;;;4923736;28;20399;-77
2022/12/21 07:01:30;;;;;;;410.23;76.47;;;7.40;99.90;;;;;;4915567;29;20473;-77
2022/12/21 07:03:56;;;;;;;424.15;75.90;;;7.40;99.90;;;;;;4911165;29;20052;-77
2022/12/21 07:06:24;;;;;;;205.15;55.75;;;7.40;99.90;;;;;;4913965;29;20107;-77
2022/12/21 07:08:51;;;;;;;245.32;58.75;;;7.40;99.90;;;;;;4918644;29;20403;-77
2022/12/21 07:11:20;;;;;;;233.93;57.08;;;7.40;99.90;;;;;;4907046;29;20588;-77
2022/12/21 07:13:47;;;;;;;187.90;54.33;;;7.40;99.90;;;;;;4921288;29;20048;-77
2022/12/21 07:16:14;;;;;;;156.15;50.25;;;7.40;99.90;;;;;;4933483;29;20105;-77
2022/12/21 07:18:40;;;;;;;174.20;55.17;;;7.40;99.90;;;;;;4924734;29;20044;-77
2022/12/21 07:21:10;;;;;;;287.05;60.97;;;7.40;99.90;;;;;;4924854;28;20507;-77
2022/12/21 07:23:37;;;;;;;206.25;57.42;;;7.50;99.90;;;;;;4914983;29;20585;-85
2022/12/21 07:26:15;;;;;;;219.27;59.72;;;7.40;99.90;;;;;;4927812;29;20482;-85
2022/12/21 07:28:43;;;;;;;192.75;58.25;;;7.40;99.90;;;;;;4929220;29;20047;-84
2022/12/21 07:31:12;;;;;;;136.32;50.47;;;7.40;99.90;;;;;;4908279;29;20572;-85
2022/12/21 07:33:40;;;;;;;213.85;58.13;;;7.50;99.90;;;;;;4913405;29;20458;-85
2022/12/21 07:36:07;;;;;;;204.52;59.22;;;7.50;99.90;;;;;;4905382;29;20055;-85
2022/12/21 07:38:35;;;;;;;126.82;50.22;;;7.40;99.90;;;;;;4892820;29;20044;-85
2022/12/21 07:41:03;;;;;;;192.50;59.55;;;7.50;99.90;;;;;;4891695;29;20464;-85
2022/12/21 07:43:30;;;;;;;184.40;55.72;;;7.40;99.90;;;;;;4906197;29;20095;-85
2022/12/21 07:45:56;;;;;;;258.60;64.38;;;7.40;99.90;;;;;;4921645;29;20410;-78
2022/12/21 07:48:22;;;;;;;130.00;51.28;;;7.40;99.90;;;;;;4903607;29;20043;-78
2022/12/21 07:50:50;;;;;;;128.80;51.40;;;7.40;99.90;;;;;;4893270;29;20048;-78
2022/12/21 07:53:16;;;;;;;171.95;55.33;;;7.40;99.90;;;;;;4914518;29;20130;-77
2022/12/21 07:55:42;;;;;;;173.38;54.63;;;7.50;99.90;;;;;;4892657;28;20091;-80
2022/12/21 07:58:09;;;;;;;227.98;59.90;;;7.50;99.90;;;;;;4905435;29;20044;-79
2022/12/21 08:00:37;;;;;;;243.90;61.58;;;7.50;99.90;;;;;;4908164;29;20135;-77
2022/12/21 08:03:06;;;;;;;210.52;60.15;;;7.50;99.90;;;;;;4911854;29;20056;-78
2022/12/21 08:05:33;;;;;;;204.50;57.42;;;7.50;99.90;;;;;;4904654;29;20596;-77
2022/12/21 08:08:00;;;;;;;208.88;57.70;;;7.50;99.90;;;;;;4919877;29;20048;-78
2022/12/21 08:10:26;;;;;;;264.50;61.83;;;7.40;99.90;;;;;;4912100;29;20149;-78
2022/12/21 08:12:52;;;;;;;185.10;56.58;;;7.50;99.90;;;;;;4891851;29;20055;-78
2022/12/21 08:15:21;;;;;;;227.07;60.63;;;7.40;99.90;;;;;;4902592;29;20050;-78
2022/12/21 08:17:47;;;;;;;206.05;60.03;;;7.50;99.90;;;;;;4914392;29;20361;-78
2022/12/21 08:20:14;;;;;;;291.05;68.32;;;7.40;99.90;;;;;;4894327;29;20043;-78
2022/12/21 08:22:42;;;;;;;249.20;65.55;;;7.50;99.90;;;;;;4901209;29;20495;-78
2022/12/21 08:25:08;;;;;;;159.27;55.33;;;7.40;99.90;;;;;;4911693;29;20534;-78
2022/12/21 08:27:34;;;;;;;149.15;54.83;;;7.50;99.90;;;;;;4922179;29;20050;-78
2022/12/21 08:30:08;;;;;;;228.40;67.80;;;7.50;99.90;;;;;;4934805;29;20048;-78
2022/12/21 08:32:34;;;;;;;117.00;50.72;;;7.50;99.90;;;;;;4904915;29;20419;-78
2022/12/21 08:35:00;;;;;;;159.43;58.45;;;7.50;99.90;;;;;;4929388;29;20059;-78
2022/12/21 08:37:29;;;;;;;171.43;61.88;;;7.50;99.90;;;;;;4905299;29;20058;-78
2022/12/21 08:39:54;;;;;;;225.95;70.45;;;7.50;99.90;;;;;;4929297;29;20058;-78
2022/12/21 08:42:20;;;;;;;295.55;76.93;;;7.50;99.90;;;;;;4899918;29;20314;-78
2022/12/21 08:44:49;;;;;;;177.07;66.43;;;7.50;99.90;;;;;;4900615;29;20043;-78
2022/12/21 08:47:15;;;;;;;133.55;57.88;;;7.50;99.90;;;;;;4911236;29;20078;-78
2022/12/21 08:49:41;;;;;;;202.88;68.25;;;7.60;99.90;;;;;;4875329;29;20680;-78
2022/12/21 08:52:06;;;;;;;202.05;68.63;;;7.50;99.90;;;;;;4915148;28;20503;-78
2022/12/21 08:54:32;;;;;;;169.25;65.93;;;7.60;99.90;;;;;;4904041;29;20055;-78
2022/12/21 08:56:58;;;;;;;164.63;64.30;;;7.60;99.90;;;;;;4902043;29;20065;-78
2022/12/21 08:59:24;;;;;;;176.23;65.35;;;7.60;99.90;;;;;;4917832;29;20055;-77
2022/12/21 09:01:53;;;;;;;235.65;77.35;;;7.60;99.90;;;;;;4902803;28;20803;-78
2022/12/21 09:04:19;;;;;;;165.00;62.67;;;7.70;99.90;;;;;;4905854;29;20486;-78
2022/12/21 09:06:45;;;;;;;207.88;71.72;;;7.70;99.90;;;;;;4922683;29;20099;-77
2022/12/21 09:09:11;;;;;;;188.60;66.68;;;7.70;99.90;;;;;;4910604;29;20059;-78
2022/12/21 09:11:37;;;;;;;196.90;68.63;;;7.70;99.90;;;;;;4902935;29;20036;-77
2022/12/21 09:14:03;;;;;;;201.43;69.30;;;7.70;99.90;;;;;;4926644;29;20469;-77
2022/12/21 09:16:28;;;;;;;229.38;72.85;;;7.70;99.90;;;;;;4904105;29;20122;-77
2022/12/21 09:18:54;;;;;;;147.18;60.53;;;7.70;99.90;;;;;;4881398;29;20135;-78
2022/12/21 09:21:22;;;;;;;184.35;63.45;;;7.70;99.90;;;;;;4896537;29;20486;-78
2022/12/21 09:23:48;;;;;;;165.43;59.38;;;7.70;99.90;;;;;;4914816;29;20126;-77
2022/12/21 09:26:15;;;;;;;194.30;68.05;;;7.80;99.90;;;;;;4910004;29;20040;-77
2022/12/21 09:28:41;;;;;;;138.75;54.40;;;7.80;99.90;;;;;;4893777;29;20043;-78
2022/12/21 09:31:15;;;;;;;148.77;58.53;;;7.80;99.90;;;;;;4910890;29;21162;-77
2022/12/21 09:33:41;;;;;;;141.10;55.30;;;7.80;99.90;;;;;;4885210;29;20056;-77
2022/12/21 09:36:09;;;;;;;131.23;53.45;;;7.80;99.90;;;;;;4907362;29;20067;-77
2022/12/21 09:38:35;;;;;;;156.85;54.22;;;7.80;99.90;;;;;;4920366;29;20039;-78
2022/12/21 09:41:27;;;;;;;166.68;54.92;;;7.80;99.90;;;;;;4909673;29;20123;-78
2022/12/21 09:44:12;;;;;;;139.77;51.33;;;7.80;99.90;;;;;;4886587;29;20048;-78
2022/12/21 09:46:42;;;;;;;141.35;52.22;;;7.80;99.90;;;;;;4920028;29;20054;-78
2022/12/21 09:49:20;;;;;;;166.45;56.08;;;7.80;99.90;;;;;;4909694;29;21059;-78
2022/12/21 09:51:54;;;;;;;169.00;57.58;;;7.80;99.90;;;;;;4927508;29;20126;-77
2022/12/21 09:54:37;;;;;;;166.05;57.72;;;7.70;99.90;;;;;;4920391;29;20107;-78
2022/12/21 09:57:06;;;;;;;141.40;53.03;;;7.70;99.90;;;;;;4917851;29;20098;-77
2022/12/21 09:59:35;;;;;;;175.60;56.45;;;7.70;99.90;;;;;;4913639;29;20523;-78
2022/12/21 10:02:19;;;;;;;158.32;56.00;;;7.70;99.90;;;;;;4901208;29;20322;-77
2022/12/21 10:05:19;;;;;;;178.68;56.65;;;7.70;99.90;;;;;;4917685;29;20051;-77
2022/12/21 10:07:50;;;;;;;178.50;58.50;;;7.60;99.90;;;;;;4920820;29;20383;-78
2022/12/21 10:10:34;;;;;;;140.95;53.67;;;7.60;99.90;;;;;;4911584;29;20051;-78
2022/12/21 10:13:25;;;;;;;134.30;52.28;;;7.70;99.90;;;;;;4905437;29;20055;-78
2022/12/21 10:16:23;;;;;;;132.30;53.38;;;7.70;99.90;;;;;;4914017;29;20039;-77
2022/12/21 10:19:27;;;;;;;126.68;49.55;;;7.70;99.90;;;;;;4898830;29;20063;-77
2022/12/21 10:22:00;;;;;;;146.75;53.15;;;7.70;99.90;;;;;;4928942;29;20394;-77
2022/12/21 10:24:40;;;;;;;132.88;52.00;;;7.60;99.90;;;;;;4910527;29;20087;-77
2022/12/21 10:27:25;;;;;;;139.07;53.58;;;7.70;99.90;;;;;;4925888;29;20055;-78
2022/12/21 10:29:56;;;;;;;112.93;50.35;;;7.70;99.90;;;;;;4910011;29;20123;-77
2022/12/21 10:32:24;;;;;;;109.70;48.33;;;7.70;99.90;;;;;;4898985;29;20056;-77
2022/12/21 10:34:54;;;;;;;102.55;45.85;;;7.70;99.90;;;;;;4891635;29;20127;-77
2022/12/21 10:37:21;;;;;;;98.10;44.72;;;7.80;99.90;;;;;;4881386;29;20120;-77
2022/12/21 10:39:55;;;;;;;90.00;42.60;;;7.80;99.90;;;;;;4894184;29;20491;-78
2022/12/21 10:42:42;;;;;;;87.68;41.97;;;7.80;99.90;;;;;;4876792;29;20456;-78
2022/12/21 10:45:15;;;;;;;80.05;40.38;;;7.90;99.90;;;;;;4884309;29;20067;-79
2022/12/21 10:47:44;;;;;;;80.63;39.30;;;7.90;99.90;;;;;;4916856;29;20095;-77
2022/12/21 10:50:17;;;;;;;78.82;38.22;;;7.90;99.90;;;;;;4879793;29;20064;-78
2022/12/21 10:52:52;;;;;;;78.78;39.85;;;7.90;99.90;;;;;;4899852;29;20037;-78
2022/12/21 10:55:18;;;;;;;78.80;39.90;;;7.90;99.90;;;;;;4891843;29;20229;-78
2022/12/21 10:57:45;;;;;;;67.55;37.10;;;8.00;99.90;;;;;;4897424;29;20041;-78
2022/12/21 11:00:39;;;;;;;74.30;38.15;;;8.00;99.90;;;;;;4898456;29;20056;-78
2022/12/21 11:03:34;;;;;;;73.47;36.90;;;8.00;99.90;;;;;;4882393;29;20466;-78
2022/12/21 11:06:15;;;;;;;79.35;38.53;;;8.10;99.90;;;;;;4901058;29;20077;-79
2022/12/21 11:08:45;;;;;;;78.88;38.28;;;8.10;99.90;;;;;;4888719;29;20048;-78
2022/12/21 11:11:44;;;;;;;77.22;38.78;;;8.10;99.90;;;;;;4891264;29;20064;-78
2022/12/21 11:14:17;;;;;;;77.80;38.97;;;8.10;99.90;;;;;;4851221;29;20060;-78
2022/12/21 11:16:47;;;;;;;79.75;40.35;;;8.10;99.90;;;;;;4904436;29;20049;-77
2022/12/21 11:19:15;;;;;;;80.95;40.05;;;8.10;99.90;;;;;;4872002;29;20048;-77
2022/12/21 11:21:52;;;;;;;76.60;39.05;;;8.10;99.90;;;;;;4892952;29;20529;-77
2022/12/21 11:24:37;;;;;;;86.75;40.13;;;8.20;99.90;;;;;;4891239;29;20120;-77
2022/12/21 11:27:27;;;;;;;76.60;38.83;;;8.20;99.90;;;;;;4895291;29;20049;-77
2022/12/21 11:29:55;;;;;;;74.93;36.47;;;8.30;99.90;;;;;;4889389;29;20120;-78
2022/12/21 11:32:22;;;;;;;77.40;38.20;;;8.30;99.90;;;;;;4906572;29;20072;-78
2022/12/21 11:34:53;;;;;;;73.65;37.65;;;8.30;99.90;;;;;;4887353;29;20048;-78
2022/12/21 11:37:44;;;;;;;69.75;36.20;;;8.30;99.90;;;;;;4880704;29;20052;-78
2022/12/21 11:40:23;;;;;;;68.47;38.10;;;8.40;99.90;;;;;;4881417;29;20140;-78
2022/12/21 11:43:00;;;;;;;70.03;35.72;;;8.40;99.90;;;;;;4903833;29;20051;-77
2022/12/21 11:45:54;;;;;;;68.40;36.15;;;8.40;99.90;;;;;;4867010;29;20053;-78
2022/12/21 11:48:27;;;;;;;76.70;37.40;;;8.40;99.90;;;;;;4892712;29;20207;-77
2022/12/21 11:51:25;;;;;;;64.82;35.47;;;8.50;99.90;;;;;;4885321;29;20036;-78
2022/12/21 11:54:09;;;;;;;62.92;34.55;;;8.50;99.90;;;;;;4892576;29;20080;-78
2022/12/21 11:57:13;;;;;;;64.90;35.22;;;8.50;99.90;;;;;;4885976;29;20119;-78
2022/12/21 11:59:39;;;;;;;70.22;37.70;;;8.60;99.90;;;;;;4859823;29;20045;-78
2022/12/21 12:02:32;;;;;;;60.58;35.50;;;8.60;99.90;;;;;;4879751;29;20058;-78
2022/12/21 12:05:00;;;;;;;61.65;33.70;;;8.60;99.90;;;;;;4889527;29;20052;-78
2022/12/21 12:07:57;;;;;;;59.80;33.75;;;8.60;99.90;;;;;;4887868;29;20087;-78
2022/12/21 12:10:44;;;;;;;61.03;33.67;;;8.60;99.90;;;;;;4896441;29;20048;-78
2022/12/21 12:13:25;;;;;;;58.67;34.42;;;8.70;99.90;;;;;;4888757;29;20049;-78
2022/12/21 12:16:24;;;;;;;62.97;35.38;;;8.70;99.90;;;;;;4891720;29;20382;-78
2022/12/21 12:19:01;;;;;;;61.22;34.00;;;8.70;99.90;;;;;;4893656;29;20075;-78
2022/12/21 12:21:34;;;;;;;56.25;32.38;;;8.70;99.90;;;;;;4889503;29;20842;-79
2022/12/21 12:24:33;;;;;;;56.90;32.50;;;8.70;99.90;;;;;;4883283;29;20403;-79
2022/12/21 12:27:10;;;;;;;54.58;30.75;;;8.70;99.90;;;;;;4887881;29;20060;-79
2022/12/21 12:29:56;;;;;;;54.75;31.55;;;8.80;99.90;;;;;;4896466;29;20405;-78
2022/12/21 12:32:44;;;;;;;52.85;30.35;;;8.70;99.90;;;;;;4874280;29;20061;-79
2022/12/21 12:35:31;;;;;;;55.78;29.90;;;8.80;99.90;;;;;;4889469;29;20044;-79
2022/12/21 12:38:12;;;;;;;51.80;29.80;;;8.80;99.90;;;;;;4887949;29;20072;-79
2022/12/21 12:41:11;;;;;;;48.38;28.63;;;8.80;99.90;;;;;;4882282;29;20045;-79
2022/12/21 12:44:00;;;;;;;48.47;29.10;;;8.70;99.90;;;;;;4912616;29;20107;-79
2022/12/21 12:46:44;;;;;;;50.70;29.67;;;8.70;99.90;;;;;;4889289;29;20519;-79
2022/12/21 12:49:29;;;;;;;47.50;31.10;;;8.70;99.90;;;;;;4890512;29;20049;-79
2022/12/21 12:52:23;;;;;;;44.67;29.02;;;8.70;99.90;;;;;;4892195;29;20077;-78
2022/12/21 12:55:07;;;;;;;51.25;29.65;;;8.70;99.90;;;;;;4886721;29;20044;-79
2022/12/21 12:58:09;;;;;;;45.13;26.67;;;8.60;99.90;;;;;;4885429;29;20055;-79
2022/12/21 13:01:13;;;;;;;43.58;26.88;;;8.60;99.90;;;;;;4888763;29;20041;-79
2022/12/21 13:04:04;;;;;;;48.80;29.33;;;8.60;99.90;;;;;;4900932;29;20048;-79
2022/12/21 13:06:55;;;;;;;51.38;29.50;;;8.60;99.90;;;;;;4891187;29;20036;-79
2022/12/21 13:09:29;;;;;;;48.95;29.42;;;8.60;99.90;;;;;;4904897;29;20064;-79